sensor_id;sensor_type;location;lat;lon;timestamp;pressure;altitude;pressure_sealevel;temperature;humidity
59831;BME280;45711;50.108;13.712;2022-11-15T00:00:34;97993.47;;;5.58;100.00
59831;BME280;45711;50.108;13.712;2022-11-15T00:03:01;97983.41;;;5.43;100.00
59831;BME280;45711;50.108;13.712;2022-11-15T00:05:27;97985.91;;;5.50;100.00
59831;BME280;45711;50.108;13.712;2022-11-15T00:07:53;97984.78;;;5.46;100.00
59831;BME280;45711;50.108;13.712;2022-11-15T00:10:21;97973.06;;;5.42;100.00
59831;BME280;45711;50.108;13.712;2022-11-15T00:12:50;97977.56;;;5.41;100.00
59831;BME280;45711;50.108;13.712;2022-11-15T00:15:17;97977.78;;;5.40;100.00
59831;BME280;45711;50.108;13.712;2022-11-15T00:17:48;97983.59;;;5.37;100.00
59831;BME280;45711;50.108;13.712;2022-11-15T00:20:21;97972.19;;;5.36;100.00
59831;BME280;45711;50.108;13.712;2022-11-15T00:22:47;97975.25;;;5.28;100.00
59831;BME280;45711;50.108;13.712;2022-11-15T00:25:16;97983.69;;;5.25;100.00
59831;BME280;45711;50.108;13.712;2022-11-15T00:27:41;97978.63;;;5.40;100.00
59831;BME280;45711;50.108;13.712;2022-11-15T00:30:11;97979.88;;;5.54;100.00
59831;BME280;45711;50.108;13.712;2022-11-15T00:32:41;97969.66;;;6.02;100.00
59831;BME280;45711;50.108;13.712;2022-11-15T00:35:08;97971.38;;;5.74;100.00
59831;BME280;45711;50.108;13.712;2022-11-15T00:37:33;97970.88;;;5.94;100.00
59831;BME280;45711;50.108;13.712;2022-11-15T00:40:01;97977.59;;;6.46;98.18
59831;BME280;45711;50.108;13.712;2022-11-15T00:42:27;97962.41;;;5.59;100.00
59831;BME280;45711;50.108;13.712;2022-11-15T00:44:53;97962.69;;;5.40;100.00
59831;BME280;45711;50.108;13.712;2022-11-15T00:47:20;97954.00;;;5.45;100.00
59831;BME280;45711;50.108;13.712;2022-11-15T00:49:49;97959.13;;;5.35;100.00
59831;BME280;45711;50.108;13.712;2022-11-15T00:52:17;97961.66;;;5.24;100.00
59831;BME280;45711;50.108;13.712;2022-11-15T00:54:43;97969.38;;;5.26;100.00
59831;BME280;45711;50.108;13.712;2022-11-15T00:57:12;97968.16;;;5.34;100.00
59831;BME280;45711;50.108;13.712;2022-11-15T00:59:46;97958.91;;;5.36;100.00
59831;BME280;45711;50.108;13.712;2022-11-15T01:02:19;97959.03;;;5.63;100.00
59831;BME280;45711;50.108;13.712;2022-11-15T01:04:51;97953.88;;;5.57;100.00
59831;BME280;45711;50.108;13.712;2022-11-15T01:07:17;97959.38;;;5.50;100.00
59831;BME280;45711;50.108;13.712;2022-11-15T01:09:51;97953.22;;;5.27;100.00
59831;BME280;45711;50.108;13.712;2022-11-15T01:12:17;97956.28;;;5.19;100.00
59831;BME280;45711;50.108;13.712;2022-11-15T01:14:57;97943.34;;;5.23;100.00
59831;BME280;45711;50.108;13.712;2022-11-15T01:17:25;97942.28;;;5.24;100.00
59831;BME280;45711;50.108;13.712;2022-11-15T01:19:54;97947.75;;;5.17;100.00
59831;BME280;45711;50.108;13.712;2022-11-15T01:22:20;97940.34;;;5.19;100.00
59831;BME280;45711;50.108;13.712;2022-11-15T01:24:47;97928.22;;;5.07;100.00
59831;BME280;45711;50.108;13.712;2022-11-15T01:27:16;97941.97;;;5.03;100.00
59831;BME280;45711;50.108;13.712;2022-11-15T01:29:51;97938.59;;;5.08;100.00
59831;BME280;45711;50.108;13.712;2022-11-15T01:32:20;97937.06;;;4.78;100.00
59831;BME280;45711;50.108;13.712;2022-11-15T01:34:45;97934.97;;;4.64;100.00
59831;BME280;45711;50.108;13.712;2022-11-15T01:37:14;97928.53;;;4.60;100.00
59831;BME280;45711;50.108;13.712;2022-11-15T01:39:40;97930.72;;;4.34;100.00
59831;BME280;45711;50.108;13.712;2022-11-15T01:42:08;97939.72;;;4.62;100.00
59831;BME280;45711;50.108;13.712;2022-11-15T01:44:42;97937.03;;;4.45;100.00
59831;BME280;45711;50.108;13.712;2022-11-15T01:47:17;97941.28;;;4.46;100.00
59831;BME280;45711;50.108;13.712;2022-11-15T01:49:50;97933.09;;;4.64;100.00
59831;BME280;45711;50.108;13.712;2022-11-15T01:52:25;97927.34;;;4.67;100.00
59831;BME280;45711;50.108;13.712;2022-11-15T01:54:56;97932.00;;;4.77;100.00
59831;BME280;45711;50.108;13.712;2022-11-15T01:57:32;97931.72;;;4.45;100.00
59831;BME280;45711;50.108;13.712;2022-11-15T02:00:01;97922.44;;;4.31;100.00
59831;BME280;45711;50.108;13.712;2022-11-15T02:02:33;97917.72;;;4.04;100.00
59831;BME280;45711;50.108;13.712;2022-11-15T02:05:02;97919.78;;;4.14;100.00
59831;BME280;45711;50.108;13.712;2022-11-15T02:07:36;97920.88;;;4.18;100.00
59831;BME280;45711;50.108;13.712;2022-11-15T02:10:11;97924.50;;;4.12;100.00
59831;BME280;45711;50.108;13.712;2022-11-15T02:12:41;97922.72;;;4.17;100.00
59831;BME280;45711;50.108;13.712;2022-11-15T02:15:08;97917.00;;;4.09;100.00
59831;BME280;45711;50.108;13.712;2022-11-15T02:17:53;97919.25;;;4.28;100.00
59831;BME280;45711;50.108;13.712;2022-11-15T02:20:34;97914.63;;;4.36;100.00
59831;BME280;45711;50.108;13.712;2022-11-15T02:23:31;97916.00;;;4.26;100.00
59831;BME280;45711;50.108;13.712;2022-11-15T02:26:18;97916.16;;;4.20;100.00
59831;BME280;45711;50.108;13.712;2022-11-15T02:29:00;97911.66;;;4.49;100.00
59831;BME280;45711;50.108;13.712;2022-11-15T02:31:34;97910.19;;;4.13;100.00
59831;BME280;45711;50.108;13.712;2022-11-15T02:34:10;97911.22;;;4.23;100.00
59831;BME280;45711;50.108;13.712;2022-11-15T02:36:47;97910.25;;;4.29;100.00
59831;BME280;45711;50.108;13.712;2022-11-15T02:39:28;97901.38;;;4.36;100.00
59831;BME280;45711;50.108;13.712;2022-11-15T02:42:02;97896.06;;;4.36;100.00
59831;BME280;45711;50.108;13.712;2022-11-15T02:44:49;97894.84;;;4.43;100.00
59831;BME280;45711;50.108;13.712;2022-11-15T02:47:22;97895.16;;;4.30;100.00
59831;BME280;45711;50.108;13.712;2022-11-15T02:49:56;97894.22;;;4.36;100.00
59831;BME280;45711;50.108;13.712;2022-11-15T02:52:31;97897.00;;;4.29;100.00
59831;BME280;45711;50.108;13.712;2022-11-15T02:55:00;97886.06;;;4.26;100.00
59831;BME280;45711;50.108;13.712;2022-11-15T02:57:37;97887.38;;;4.23;100.00
59831;BME280;45711;50.108;13.712;2022-11-15T03:00:08;97887.91;;;4.25;100.00
59831;BME280;45711;50.108;13.712;2022-11-15T03:02:52;97884.72;;;4.23;100.00
59831;BME280;45711;50.108;13.712;2022-11-15T03:05:44;97880.31;;;4.29;100.00
59831;BME280;45711;50.108;13.712;2022-11-15T03:08:19;97879.81;;;4.15;100.00
59831;BME280;45711;50.108;13.712;2022-11-15T03:10:54;97877.47;;;3.90;100.00
59831;BME280;45711;50.108;13.712;2022-11-15T03:13:34;97877.78;;;4.06;100.00
59831;BME280;45711;50.108;13.712;2022-11-15T03:16:27;97874.63;;;3.92;100.00
59831;BME280;45711;50.108;13.712;2022-11-15T03:18:59;97888.41;;;3.94;100.00
59831;BME280;45711;50.108;13.712;2022-11-15T03:21:39;97876.97;;;4.05;100.00
59831;BME280;45711;50.108;13.712;2022-11-15T03:24:20;97879.50;;;4.28;100.00
59831;BME280;45711;50.108;13.712;2022-11-15T03:27:01;97870.34;;;4.19;100.00
59831;BME280;45711;50.108;13.712;2022-11-15T03:29:47;97874.94;;;4.41;100.00
59831;BME280;45711;50.108;13.712;2022-11-15T03:35:48;97874.66;;;4.71;98.37
59831;BME280;45711;50.108;13.712;2022-11-15T03:38:51;97870.88;;;4.50;98.58
59831;BME280;45711;50.108;13.712;2022-11-15T03:41:33;97874.69;;;4.25;100.00
59831;BME280;45711;50.108;13.712;2022-11-15T03:44:51;97873.50;;;4.04;100.00
59831;BME280;45711;50.108;13.712;2022-11-15T03:47:36;97882.56;;;3.92;100.00
59831;BME280;45711;50.108;13.712;2022-11-15T03:50:24;97877.75;;;3.77;100.00
59831;BME280;45711;50.108;13.712;2022-11-15T03:53:27;97865.88;;;3.39;100.00
59831;BME280;45711;50.108;13.712;2022-11-15T03:56:08;97864.25;;;3.50;100.00
59831;BME280;45711;50.108;13.712;2022-11-15T03:59:04;97869.47;;;3.73;100.00
59831;BME280;45711;50.108;13.712;2022-11-15T04:01:50;97870.16;;;3.81;100.00
59831;BME280;45711;50.108;13.712;2022-11-15T04:05:10;97859.38;;;3.70;100.00
59831;BME280;45711;50.108;13.712;2022-11-15T04:07:57;97862.50;;;3.67;100.00
59831;BME280;45711;50.108;13.712;2022-11-15T04:10:23;97867.19;;;3.65;100.00
59831;BME280;45711;50.108;13.712;2022-11-15T04:12:51;97857.53;;;3.71;100.00
59831;BME280;45711;50.108;13.712;2022-11-15T04:15:23;97858.69;;;3.75;100.00
59831;BME280;45711;50.108;13.712;2022-11-15T04:17:51;97855.22;;;3.74;100.00
59831;BME280;45711;50.108;13.712;2022-11-15T04:20:28;97857.75;;;3.69;100.00
59831;BME280;45711;50.108;13.712;2022-11-15T04:23:18;97858.72;;;3.92;100.00
59831;BME280;45711;50.108;13.712;2022-11-15T04:26:07;97863.44;;;3.90;100.00
59831;BME280;45711;50.108;13.712;2022-11-15T04:28:34;97861.22;;;3.98;100.00
59831;BME280;45711;50.108;13.712;2022-11-15T04:31:00;97855.94;;;3.98;100.00
59831;BME280;45711;50.108;13.712;2022-11-15T04:33:26;97851.09;;;3.95;100.00
59831;BME280;45711;50.108;13.712;2022-11-15T04:35:54;97854.94;;;4.33;100.00
59831;BME280;45711;50.108;13.712;2022-11-15T04:38:43;97848.13;;;3.92;100.00
59831;BME280;45711;50.108;13.712;2022-11-15T04:41:12;97828.97;;;3.73;100.00
59831;BME280;45711;50.108;13.712;2022-11-15T04:43:38;97839.38;;;3.91;100.00
59831;BME280;45711;50.108;13.712;2022-11-15T04:46:13;97839.00;;;3.99;100.00
59831;BME280;45711;50.108;13.712;2022-11-15T04:48:39;97828.13;;;3.84;100.00
59831;BME280;45711;50.108;13.712;2022-11-15T04:51:07;97836.91;;;3.73;100.00
59831;BME280;45711;50.108;13.712;2022-11-15T04:53:33;97833.91;;;3.81;100.00
59831;BME280;45711;50.108;13.712;2022-11-15T04:56:03;97827.56;;;3.82;100.00
59831;BME280;45711;50.108;13.712;2022-11-15T04:58:31;97826.28;;;3.85;100.00
59831;BME280;45711;50.108;13.712;2022-11-15T05:00:57;97832.06;;;3.82;100.00
59831;BME280;45711;50.108;13.712;2022-11-15T05:03:23;97826.66;;;3.76;100.00
59831;BME280;45711;50.108;13.712;2022-11-15T05:06:07;97822.41;;;3.75;100.00
59831;BME280;45711;50.108;13.712;2022-11-15T05:08:35;97828.09;;;3.67;100.00
59831;BME280;45711;50.108;13.712;2022-11-15T05:11:03;97827.91;;;3.57;100.00
59831;BME280;45711;50.108;13.712;2022-11-15T05:13:28;97827.22;;;3.78;100.00
59831;BME280;45711;50.108;13.712;2022-11-15T05:16:00;97823.13;;;3.71;100.00
59831;BME280;45711;50.108;13.712;2022-11-15T05:18:26;97826.84;;;3.58;100.00
59831;BME280;45711;50.108;13.712;2022-11-15T05:20:52;97823.50;;;3.63;100.00
59831;BME280;45711;50.108;13.712;2022-11-15T05:23:17;97818.91;;;3.58;100.00
59831;BME280;45711;50.108;13.712;2022-11-15T05:25:43;97806.38;;;3.53;100.00
59831;BME280;45711;50.108;13.712;2022-11-15T05:28:10;97814.25;;;3.48;100.00
59831;BME280;45711;50.108;13.712;2022-11-15T05:30:36;97810.53;;;3.49;100.00
59831;BME280;45711;50.108;13.712;2022-11-15T05:33:02;97816.13;;;3.65;100.00
59831;BME280;45711;50.108;13.712;2022-11-15T05:35:30;97814.69;;;3.45;100.00
59831;BME280;45711;50.108;13.712;2022-11-15T05:37:57;97812.75;;;3.69;100.00
59831;BME280;45711;50.108;13.712;2022-11-15T05:40:23;97812.28;;;3.72;100.00
59831;BME280;45711;50.108;13.712;2022-11-15T05:42:49;97816.00;;;3.71;100.00
59831;BME280;45711;50.108;13.712;2022-11-15T05:45:18;97811.34;;;3.78;100.00
59831;BME280;45711;50.108;13.712;2022-11-15T05:47:54;97813.47;;;3.65;100.00
59831;BME280;45711;50.108;13.712;2022-11-15T05:50:50;97816.13;;;3.65;100.00
59831;BME280;45711;50.108;13.712;2022-11-15T05:53:18;97817.34;;;3.74;100.00
59831;BME280;45711;50.108;13.712;2022-11-15T05:55:45;97816.13;;;3.65;100.00
59831;BME280;45711;50.108;13.712;2022-11-15T05:58:11;97814.47;;;3.75;100.00
59831;BME280;45711;50.108;13.712;2022-11-15T06:00:40;97813.47;;;3.65;100.00
59831;BME280;45711;50.108;13.712;2022-11-15T06:03:08;97806.97;;;3.84;100.00
59831;BME280;45711;50.108;13.712;2022-11-15T06:05:34;97811.13;;;3.80;100.00
59831;BME280;45711;50.108;13.712;2022-11-15T06:08:00;97820.41;;;3.54;100.00
59831;BME280;45711;50.108;13.712;2022-11-15T06:10:27;97810.88;;;3.53;100.00
59831;BME280;45711;50.108;13.712;2022-11-15T06:12:58;97814.25;;;3.48;100.00
59831;BME280;45711;50.108;13.712;2022-11-15T06:15:27;97817.59;;;3.32;100.00
59831;BME280;45711;50.108;13.712;2022-11-15T06:17:57;97814.63;;;3.17;100.00
59831;BME280;45711;50.108;13.712;2022-11-15T06:20:30;97809.06;;;3.42;100.00
59831;BME280;45711;50.108;13.712;2022-11-15T06:22:57;97812.97;;;3.39;100.00
59831;BME280;45711;50.108;13.712;2022-11-15T06:25:23;97810.13;;;3.29;100.00
59831;BME280;45711;50.108;13.712;2022-11-15T06:27:51;97812.41;;;3.37;100.00
59831;BME280;45711;50.108;13.712;2022-11-15T06:30:35;97816.66;;;3.38;100.00
59831;BME280;45711;50.108;13.712;2022-11-15T06:33:17;97809.03;;;3.53;100.00
59831;BME280;45711;50.108;13.712;2022-11-15T06:35:50;97806.38;;;3.53;100.00
59831;BME280;45711;50.108;13.712;2022-11-15T06:38:21;97806.97;;;3.44;100.00
59831;BME280;45711;50.108;13.712;2022-11-15T06:40:54;97806.31;;;3.48;100.00
59831;BME280;45711;50.108;13.712;2022-11-15T06:43:26;97812.50;;;3.42;100.00
59831;BME280;45711;50.108;13.712;2022-11-15T06:45:57;97809.16;;;3.47;100.00
59831;BME280;45711;50.108;13.712;2022-11-15T06:48:43;97819.97;;;3.57;100.00
59831;BME280;45711;50.108;13.712;2022-11-15T06:51:39;97815.94;;;3.83;100.00
59831;BME280;45711;50.108;13.712;2022-11-15T06:54:59;97818.31;;;3.56;100.00
59831;BME280;45711;50.108;13.712;2022-11-15T07:01:10;97825.53;;;3.72;100.00
59831;BME280;45711;50.108;13.712;2022-11-15T07:13:32;97835.22;;;3.26;100.00
59831;BME280;45711;50.108;13.712;2022-11-15T07:19:32;97841.16;;;3.34;100.00
59831;BME280;45711;50.108;13.712;2022-11-15T07:22:35;97844.00;;;3.44;100.00
59831;BME280;45711;50.108;13.712;2022-11-15T07:25:08;97848.03;;;3.46;100.00
59831;BME280;45711;50.108;13.712;2022-11-15T07:31:27;97834.78;;;3.58;100.00
59831;BME280;45711;50.108;13.712;2022-11-15T07:36:12;97833.75;;;3.59;100.00
59831;BME280;45711;50.108;13.712;2022-11-15T07:38:28;97843.88;;;3.62;100.00
59831;BME280;45711;50.108;13.712;2022-11-15T08:14:43;97820.06;;;3.62;100.00
59831;BME280;45711;50.108;13.712;2022-11-15T08:17:19;97818.81;;;3.53;100.00
59831;BME280;45711;50.108;13.712;2022-11-15T08:23:36;97818.31;;;3.96;99.29
59831;BME280;45711;50.108;13.712;2022-11-15T08:26:08;97823.53;;;3.51;100.00
59831;BME280;45711;50.108;13.712;2022-11-15T08:35:23;97823.34;;;3.41;100.00
59831;BME280;45711;50.108;13.712;2022-11-15T08:41:44;97820.53;;;4.04;100.00
59831;BME280;45711;50.108;13.712;2022-11-15T08:44:34;97814.81;;;3.79;100.00
59831;BME280;45711;50.108;13.712;2022-11-15T08:47:27;97805.63;;;3.70;100.00
59831;BME280;45711;50.108;13.712;2022-11-15T08:49:53;97795.88;;;3.70;100.00
59831;BME280;45711;50.108;13.712;2022-11-15T09:02:18;97799.28;;;3.99;100.00
59831;BME280;45711;50.108;13.712;2022-11-15T09:05:35;97808.22;;;4.44;100.00
59831;BME280;45711;50.108;13.712;2022-11-15T09:24:31;97793.84;;;4.06;100.00
59831;BME280;45711;50.108;13.712;2022-11-15T09:26:57;97795.28;;;3.97;100.00
59831;BME280;45711;50.108;13.712;2022-11-15T09:29:33;97794.16;;;3.93;100.00
59831;BME280;45711;50.108;13.712;2022-11-15T09:35:47;97796.81;;;4.26;100.00
59831;BME280;45711;50.108;13.712;2022-11-15T09:38:26;97795.31;;;3.85;100.00
59831;BME280;45711;50.108;13.712;2022-11-15T09:41:08;97799.81;;;3.85;100.00
59831;BME280;45711;50.108;13.712;2022-11-15T09:43:47;97802.88;;;3.65;100.00
59831;BME280;45711;50.108;13.712;2022-11-15T09:46:24;97791.22;;;3.77;100.00
59831;BME280;45711;50.108;13.712;2022-11-15T09:53:10;97786.84;;;4.00;100.00
59831;BME280;45711;50.108;13.712;2022-11-15T09:55:27;97785.97;;;4.11;100.00
59831;BME280;45711;50.108;13.712;2022-11-15T09:57:59;97784.47;;;4.15;100.00
59831;BME280;45711;50.108;13.712;2022-11-15T10:00:31;97776.44;;;4.10;100.00
59831;BME280;45711;50.108;13.712;2022-11-15T10:03:10;97773.06;;;4.15;100.00
59831;BME280;45711;50.108;13.712;2022-11-15T10:05:38;97769.25;;;3.94;100.00
59831;BME280;45711;50.108;13.712;2022-11-15T10:08:16;97767.63;;;3.76;100.00
59831;BME280;45711;50.108;13.712;2022-11-15T10:10:49;97768.78;;;3.97;100.00
59831;BME280;45711;50.108;13.712;2022-11-15T10:13:18;97764.31;;;4.31;100.00
59831;BME280;45711;50.108;13.712;2022-11-15T10:15:47;97760.22;;;4.57;100.00
59831;BME280;45711;50.108;13.712;2022-11-15T10:18:16;97761.41;;;4.66;100.00
59831;BME280;45711;50.108;13.712;2022-11-15T10:20:48;97755.44;;;4.59;100.00
59831;BME280;45711;50.108;13.712;2022-11-15T10:23:16;97752.84;;;4.81;100.00
59831;BME280;45711;50.108;13.712;2022-11-15T10:25:43;97745.50;;;4.66;100.00
59831;BME280;45711;50.108;13.712;2022-11-15T10:28:20;97731.72;;;4.69;100.00
59831;BME280;45711;50.108;13.712;2022-11-15T10:30:49;97726.66;;;4.85;100.00
59831;BME280;45711;50.108;13.712;2022-11-15T10:33:33;97720.22;;;4.81;100.00
59831;BME280;45711;50.108;13.712;2022-11-15T10:36:18;97723.84;;;4.74;100.00
59831;BME280;45711;50.108;13.712;2022-11-15T10:39:05;97721.81;;;4.82;100.00
59831;BME280;45711;50.108;13.712;2022-11-15T10:41:39;97713.94;;;4.87;100.00
59831;BME280;45711;50.108;13.712;2022-11-15T10:44:26;97710.53;;;4.91;100.00
59831;BME280;45711;50.108;13.712;2022-11-15T10:49:54;97711.03;;;4.66;100.00
59831;BME280;45711;50.108;13.712;2022-11-15T10:52:21;97706.78;;;4.87;100.00
59831;BME280;45711;50.108;13.712;2022-11-15T10:54:52;97701.97;;;4.84;100.00
59831;BME280;45711;50.108;13.712;2022-11-15T10:57:22;97705.91;;;5.25;100.00
59831;BME280;45711;50.108;13.712;2022-11-15T10:59:51;97704.44;;;5.40;99.51
59831;BME280;45711;50.108;13.712;2022-11-15T11:02:34;97696.91;;;5.04;100.00
59831;BME280;45711;50.108;13.712;2022-11-15T11:05:26;97691.50;;;4.94;100.00
59831;BME280;45711;50.108;13.712;2022-11-15T11:07:56;97680.50;;;5.08;100.00
59831;BME280;45711;50.108;13.712;2022-11-15T11:10:31;97681.44;;;5.18;100.00
59831;BME280;45711;50.108;13.712;2022-11-15T11:13:13;97678.56;;;5.25;100.00
59831;BME280;45711;50.108;13.712;2022-11-15T11:15:46;97671.47;;;5.09;100.00
59831;BME280;45711;50.108;13.712;2022-11-15T11:18:19;97671.13;;;5.00;100.00
59831;BME280;45711;50.108;13.712;2022-11-15T11:21:26;97666.31;;;5.19;100.00
59831;BME280;45711;50.108;13.712;2022-11-15T11:24:19;97659.31;;;5.94;97.03
59831;BME280;45711;50.108;13.712;2022-11-15T11:27:39;97667.94;;;5.52;99.22
59831;BME280;45711;50.108;13.712;2022-11-15T11:30:41;97656.00;;;5.49;100.00
59831;BME280;45711;50.108;13.712;2022-11-15T11:33:16;97650.56;;;5.39;100.00
59831;BME280;45711;50.108;13.712;2022-11-15T11:39:43;97653.00;;;5.41;100.00
59831;BME280;45711;50.108;13.712;2022-11-15T11:42:40;97645.06;;;5.46;99.96
59831;BME280;45711;50.108;13.712;2022-11-15T11:45:21;97645.59;;;5.75;98.64
59831;BME280;45711;50.108;13.712;2022-11-15T11:48:02;97638.47;;;5.80;98.78
59831;BME280;45711;50.108;13.712;2022-11-15T11:54:20;97638.78;;;5.57;98.37
59831;BME280;45711;50.108;13.712;2022-11-15T11:56:54;97642.16;;;5.47;99.38
59831;BME280;45711;50.108;13.712;2022-11-15T11:59:39;97627.84;;;5.48;98.40
59831;BME280;45711;50.108;13.712;2022-11-15T12:02:14;97628.59;;;5.76;96.52
59831;BME280;45711;50.108;13.712;2022-11-15T12:04:46;97619.28;;;5.41;98.59
59831;BME280;45711;50.108;13.712;2022-11-15T12:07:23;97615.53;;;5.37;99.88
59831;BME280;45711;50.108;13.712;2022-11-15T12:09:57;97611.41;;;5.51;100.00
59831;BME280;45711;50.108;13.712;2022-11-15T12:12:35;97604.66;;;5.39;100.00
59831;BME280;45711;50.108;13.712;2022-11-15T12:15:12;97601.69;;;5.62;98.94
59831;BME280;45711;50.108;13.712;2022-11-15T12:18:24;97602.94;;;5.54;99.29
59831;BME280;45711;50.108;13.712;2022-11-15T12:20:52;97607.72;;;5.25;100.00
59831;BME280;45711;50.108;13.712;2022-11-15T12:23:52;97591.78;;;5.20;100.00
59831;BME280;45711;50.108;13.712;2022-11-15T12:27:01;97593.25;;;5.38;99.82
59831;BME280;45711;50.108;13.712;2022-11-15T12:29:56;97576.56;;;5.11;100.00
59831;BME280;45711;50.108;13.712;2022-11-15T12:32:49;97582.16;;;5.41;100.00
59831;BME280;45711;50.108;13.712;2022-11-15T12:42:34;97565.41;;;5.78;96.79
59831;BME280;45711;50.108;13.712;2022-11-15T12:55:29;97558.59;;;6.35;95.25
59831;BME280;45711;50.108;13.712;2022-11-15T12:58:40;97559.78;;;6.07;97.13
59831;BME280;45711;50.108;13.712;2022-11-15T13:04:28;97550.81;;;5.75;99.22
59831;BME280;45711;50.108;13.712;2022-11-15T13:10:34;97534.78;;;5.65;99.43
59831;BME280;45711;50.108;13.712;2022-11-15T13:13:06;97525.47;;;5.58;100.00
59831;BME280;45711;50.108;13.712;2022-11-15T13:15:55;97531.19;;;5.82;100.00
59831;BME280;45711;50.108;13.712;2022-11-15T13:19:02;97530.28;;;6.03;97.73
59831;BME280;45711;50.108;13.712;2022-11-15T13:21:35;97529.22;;;6.04;97.64
59831;BME280;45711;50.108;13.712;2022-11-15T13:45:45;97511.97;;;5.64;98.41
59831;BME280;45711;50.108;13.712;2022-11-15T13:48:30;97503.16;;;5.53;98.55
59831;BME280;45711;50.108;13.712;2022-11-15T13:51:17;97505.84;;;5.59;98.90
59831;BME280;45711;50.108;13.712;2022-11-15T13:54:32;97501.84;;;5.61;97.39
59831;BME280;45711;50.108;13.712;2022-11-15T14:19:04;97492.59;;;5.26;99.10
59831;BME280;45711;50.108;13.712;2022-11-15T14:21:31;97486.66;;;5.51;97.21
59831;BME280;45711;50.108;13.712;2022-11-15T14:24:20;97488.31;;;5.20;98.74
59831;BME280;45711;50.108;13.712;2022-11-15T14:26:47;97482.84;;;5.32;97.58
59831;BME280;45711;50.108;13.712;2022-11-15T14:29:22;97489.00;;;5.43;97.57
59831;BME280;45711;50.108;13.712;2022-11-15T14:32:25;97486.50;;;5.26;97.33
59831;BME280;45711;50.108;13.712;2022-11-15T14:34:56;97498.47;;;5.28;97.70
59831;BME280;45711;50.108;13.712;2022-11-15T14:37:29;97497.00;;;5.48;95.71
59831;BME280;45711;50.108;13.712;2022-11-15T14:40:39;97490.56;;;5.39;95.21
59831;BME280;45711;50.108;13.712;2022-11-15T14:43:16;97474.31;;;4.93;97.22
59831;BME280;45711;50.108;13.712;2022-11-15T14:45:49;97484.91;;;4.93;98.45
59831;BME280;45711;50.108;13.712;2022-11-15T14:48:27;97485.50;;;5.00;98.91
59831;BME280;45711;50.108;13.712;2022-11-15T14:51:11;97484.22;;;5.08;98.27
59831;BME280;45711;50.108;13.712;2022-11-15T14:53:43;97469.53;;;5.27;96.71
59831;BME280;45711;50.108;13.712;2022-11-15T14:56:16;97460.88;;;5.42;95.39
59831;BME280;45711;50.108;13.712;2022-11-15T14:58:44;97464.19;;;4.90;97.61
59831;BME280;45711;50.108;13.712;2022-11-15T15:01:19;97462.56;;;4.84;98.45
59831;BME280;45711;50.108;13.712;2022-11-15T15:03:52;97466.50;;;5.13;97.63
59831;BME280;45711;50.108;13.712;2022-11-15T15:06:20;97463.47;;;4.99;96.86
59831;BME280;45711;50.108;13.712;2022-11-15T15:08:46;97468.28;;;4.70;99.04
59831;BME280;45711;50.108;13.712;2022-11-15T15:11:25;97458.69;;;4.96;98.00
59831;BME280;45711;50.108;13.712;2022-11-15T15:13:54;97458.53;;;5.13;96.94
59831;BME280;45711;50.108;13.712;2022-11-15T15:16:25;97461.66;;;5.42;97.43
59831;BME280;45711;50.108;13.712;2022-11-15T15:18:50;97458.97;;;5.00;96.82
59831;BME280;45711;50.108;13.712;2022-11-15T15:21:20;97455.03;;;5.02;97.14
59831;BME280;45711;50.108;13.712;2022-11-15T15:23:49;97458.81;;;4.79;97.24
59831;BME280;45711;50.108;13.712;2022-11-15T15:26:19;97464.06;;;4.74;97.58
59831;BME280;45711;50.108;13.712;2022-11-15T15:28:45;97454.81;;;4.77;96.45
59831;BME280;45711;50.108;13.712;2022-11-15T15:31:13;97450.78;;;5.01;96.06
59831;BME280;45711;50.108;13.712;2022-11-15T15:33:41;97459.97;;;4.89;96.94
59831;BME280;45711;50.108;13.712;2022-11-15T15:36:10;97454.13;;;4.60;97.31
59831;BME280;45711;50.108;13.712;2022-11-15T15:38:37;97443.16;;;4.78;97.40
59831;BME280;45711;50.108;13.712;2022-11-15T15:41:03;97441.72;;;4.65;98.49
59831;BME280;45711;50.108;13.712;2022-11-15T15:43:34;97439.19;;;4.48;98.30
59831;BME280;45711;50.108;13.712;2022-11-15T15:46:02;97443.84;;;5.00;99.08
59831;BME280;45711;50.108;13.712;2022-11-15T15:48:36;97437.53;;;4.74;98.17
59831;BME280;45711;50.108;13.712;2022-11-15T15:51:06;97444.50;;;4.81;97.73
59831;BME280;45711;50.108;13.712;2022-11-15T15:53:32;97431.09;;;4.65;98.65
59831;BME280;45711;50.108;13.712;2022-11-15T15:56:02;97441.25;;;5.06;98.40
59831;BME280;45711;50.108;13.712;2022-11-15T15:58:29;97439.94;;;5.08;96.73
59831;BME280;45711;50.108;13.712;2022-11-15T16:00:59;97438.78;;;4.94;97.21
59831;BME280;45711;50.108;13.712;2022-11-15T16:03:31;97431.31;;;4.91;97.17
59831;BME280;45711;50.108;13.712;2022-11-15T16:05:56;97434.84;;;4.69;98.25
59831;BME280;45711;50.108;13.712;2022-11-15T16:08:24;97431.81;;;4.56;99.50
59831;BME280;45711;50.108;13.712;2022-11-15T16:10:52;97425.38;;;4.46;98.81
59831;BME280;45711;50.108;13.712;2022-11-15T16:13:24;97422.72;;;4.78;98.99
59831;BME280;45711;50.108;13.712;2022-11-15T16:15:52;97420.59;;;4.75;97.76
59831;BME280;45711;50.108;13.712;2022-11-15T16:18:21;97430.88;;;5.04;96.68
59831;BME280;45711;50.108;13.712;2022-11-15T16:20:53;97430.53;;;4.90;97.21
59831;BME280;45711;50.108;13.712;2022-11-15T16:23:26;97423.00;;;4.77;97.55
59831;BME280;45711;50.108;13.712;2022-11-15T16:25:57;97430.09;;;5.03;98.16
59831;BME280;45711;50.108;13.712;2022-11-15T16:32:14;97430.19;;;4.49;99.08
59831;BME280;45711;50.108;13.712;2022-11-15T16:34:44;97431.03;;;4.55;99.00
59831;BME280;45711;50.108;13.712;2022-11-15T16:37:24;97422.84;;;4.89;99.51
59831;BME280;45711;50.108;13.712;2022-11-15T16:39:57;97415.06;;;5.14;98.05
59831;BME280;45711;50.108;13.712;2022-11-15T16:42:56;97417.94;;;4.70;97.25
59831;BME280;45711;50.108;13.712;2022-11-15T16:46:30;97419.41;;;5.30;95.90